createdAt,value
2017-12-29T00:01:32.352Z,0.40
2017-12-29T00:03:59.324Z,0.40
2017-12-29T00:06:26.280Z,0.40
2017-12-29T00:08:54.004Z,0.40
2017-12-29T00:11:20.975Z,0.40
2017-12-29T00:13:47.935Z,0.30
2017-12-29T00:16:15.664Z,0.20
2017-12-29T00:18:42.633Z,0.20
2017-12-29T00:21:10.363Z,0.10
2017-12-29T00:23:37.324Z,0.10
2017-12-29T00:26:04.387Z,0.10
2017-12-29T00:28:32.115Z,0.10
2017-12-29T00:30:59.088Z,0.10
2017-12-29T00:33:26.056Z,0.10
2017-12-29T00:35:53.780Z,0.00
2017-12-29T00:38:20.743Z,0.00
2017-12-29T00:40:47.731Z,0.00
2017-12-29T00:43:14.692Z,0.00
2017-12-29T00:45:41.652Z,0.00
2017-12-29T00:48:08.620Z,-0.10
2017-12-29T00:50:35.855Z,-0.10
2017-12-29T00:53:02.825Z,-0.10
2017-12-29T00:55:29.848Z,-0.20
2017-12-29T00:57:56.833Z,-0.20
2017-12-29T01:00:24.568Z,-0.20
2017-12-29T01:02:51.537Z,-0.20
2017-12-29T01:05:18.508Z,-0.20
2017-12-29T01:07:45.476Z,-0.20
2017-12-29T01:10:12.450Z,-0.20
2017-12-29T01:12:39.412Z,-0.20
2017-12-29T01:15:07.153Z,-0.20
2017-12-29T01:17:34.121Z,-0.30
2017-12-29T01:20:02.596Z,-0.20
2017-12-29T01:22:30.347Z,-0.20
2017-12-29T01:24:57.328Z,-0.20
2017-12-29T01:27:25.060Z,-0.20
2017-12-29T01:29:52.033Z,-0.20
2017-12-29T01:32:19.768Z,-0.30
2017-12-29T01:34:46.735Z,-0.20
2017-12-29T01:37:14.459Z,-0.20
2017-12-29T01:39:41.432Z,-0.20
2017-12-29T01:42:08.396Z,-0.20
2017-12-29T01:44:36.128Z,-0.10
2017-12-29T01:47:03.097Z,-0.10
2017-12-29T01:49:30.843Z,-0.20
2017-12-29T01:51:57.820Z,-0.30
2017-12-29T01:54:25.551Z,-0.20
2017-12-29T01:56:52.539Z,-0.20
2017-12-29T01:59:19.513Z,-0.30
2017-12-29T02:01:46.480Z,-0.30
2017-12-29T02:04:13.449Z,-0.30
2017-12-29T02:06:42.148Z,-0.30
2017-12-29T02:09:09.888Z,-0.40
2017-12-29T02:11:36.860Z,-0.40
2017-12-29T02:14:04.589Z,-0.40
2017-12-29T02:16:31.564Z,-0.40
2017-12-29T02:18:59.292Z,-0.50
2017-12-29T02:21:26.269Z,-0.50
2017-12-29T02:23:53.997Z,-0.50
2017-12-29T02:26:20.972Z,-0.50
2017-12-29T02:28:48.700Z,-0.50
2017-12-29T02:31:15.672Z,-0.50
2017-12-29T02:33:42.656Z,-0.50
2017-12-29T02:36:09.628Z,-0.50
2017-12-29T02:38:36.603Z,-0.50
2017-12-29T02:41:03.564Z,-0.50
2017-12-29T02:43:31.321Z,-0.50
2017-12-29T02:45:58.279Z,-0.50
2017-12-29T02:48:26.021Z,-0.60
2017-12-29T02:50:52.988Z,-0.60
2017-12-29T02:53:20.736Z,-0.60
2017-12-29T02:55:47.707Z,-0.60
2017-12-29T02:58:15.445Z,-0.60
2017-12-29T03:00:42.404Z,-0.60
2017-12-29T03:03:10.155Z,-0.50
2017-12-29T03:05:37.116Z,-0.60
2017-12-29T03:08:04.853Z,-0.60
2017-12-29T03:10:31.831Z,-0.60
2017-12-29T03:12:59.556Z,-0.60
2017-12-29T03:15:26.532Z,-0.60
2017-12-29T03:17:54.269Z,-0.60
2017-12-29T03:20:21.241Z,-0.60
2017-12-29T03:22:49.028Z,-0.60
2017-12-29T03:25:16.008Z,-0.60
2017-12-29T03:27:42.982Z,-0.60
2017-12-29T03:30:09.948Z,-0.50
2017-12-29T03:32:37.675Z,-0.60
2017-12-29T03:35:04.916Z,-0.60
2017-12-29T03:37:31.879Z,-0.50
2017-12-29T03:39:58.868Z,-0.50
2017-12-29T03:42:25.843Z,-0.50
2017-12-29T03:44:52.800Z,-0.50
2017-12-29T03:47:19.772Z,-0.50
2017-12-29T03:49:47.604Z,-0.60
2017-12-29T03:52:14.580Z,-0.60
2017-12-29T03:54:41.547Z,-0.60
2017-12-29T03:57:09.279Z,-0.60
2017-12-29T03:59:36.245Z,-0.70
2017-12-29T04:02:03.984Z,-0.70
2017-12-29T04:04:30.952Z,-0.70
2017-12-29T04:06:58.698Z,-0.70
2017-12-29T04:09:25.656Z,-0.70
2017-12-29T04:11:53.400Z,-0.60
2017-12-29T04:14:20.372Z,-0.60
2017-12-29T04:16:48.109Z,-0.60
2017-12-29T04:19:15.076Z,-0.70
2017-12-29T04:21:42.819Z,-0.70
2017-12-29T04:24:09.788Z,-0.70
2017-12-29T04:26:36.760Z,-0.70
2017-12-29T04:29:03.732Z,-0.70
2017-12-29T04:31:30.708Z,-0.70
2017-12-29T04:33:57.668Z,-0.80
2017-12-29T04:36:25.404Z,-0.70
2017-12-29T04:38:52.372Z,-0.80
2017-12-29T04:41:19.344Z,-0.70
2017-12-29T04:43:47.084Z,-0.60
2017-12-29T04:46:14.823Z,-0.60
2017-12-29T04:48:41.791Z,-0.60
2017-12-29T04:51:10.269Z,-0.80
2017-12-29T04:53:37.232Z,-0.70
2017-12-29T04:56:05.013Z,-0.80
2017-12-29T04:58:31.935Z,-0.90
2017-12-29T05:00:59.676Z,-0.80
2017-12-29T05:03:26.639Z,-0.80
2017-12-29T05:05:54.376Z,-0.80
2017-12-29T05:08:21.344Z,-0.80
2017-12-29T05:10:49.124Z,-0.80
2017-12-29T05:13:16.860Z,-0.80
2017-12-29T05:15:43.833Z,-0.80
2017-12-29T05:18:11.568Z,-0.70
2017-12-29T05:20:38.540Z,-0.70
2017-12-29T05:23:06.264Z,-0.60
2017-12-29T05:25:33.256Z,-0.60
2017-12-29T05:28:01.045Z,-0.60
2017-12-29T05:30:28.024Z,-0.70
2017-12-29T05:32:54.996Z,-0.60
2017-12-29T05:35:22.732Z,-0.50
2017-12-29T05:37:50.474Z,-0.60
2017-12-29T05:40:17.435Z,-0.60
2017-12-29T05:42:44.407Z,-0.50
2017-12-29T05:45:12.148Z,-0.50
2017-12-29T05:47:39.115Z,-0.50
2017-12-29T05:50:07.583Z,-0.50
2017-12-29T05:52:34.580Z,-0.50
2017-12-29T05:55:02.292Z,-0.50
2017-12-29T05:57:29.259Z,-0.50
2017-12-29T05:59:56.228Z,-0.60
2017-12-29T06:02:23.196Z,-0.50
2017-12-29T06:04:50.167Z,-0.50
2017-12-29T06:07:17.136Z,-0.50
2017-12-29T06:09:44.869Z,-0.50
2017-12-29T06:12:11.845Z,-0.50
2017-12-29T06:14:38.809Z,-0.50
2017-12-29T06:17:06.548Z,-0.60
2017-12-29T06:19:33.524Z,-0.50
2017-12-29T06:22:01.255Z,-0.60
2017-12-29T06:24:28.459Z,-0.60
2017-12-29T06:26:57.556Z,-0.50
2017-12-29T06:29:24.545Z,-0.60
2017-12-29T06:31:51.514Z,-0.50
2017-12-29T06:34:19.248Z,-0.40
2017-12-29T06:36:46.228Z,-0.40
2017-12-29T06:39:13.960Z,-0.30
2017-12-29T06:41:40.932Z,-0.30
2017-12-29T06:44:08.668Z,-0.40
2017-12-29T06:46:35.639Z,-0.40
2017-12-29T06:49:03.380Z,-0.40
2017-12-29T06:51:30.372Z,-0.40
2017-12-29T06:53:57.328Z,-0.30
2017-12-29T06:56:24.300Z,-0.30
2017-12-29T06:58:51.268Z,-0.20
2017-12-29T07:01:18.249Z,-0.30
2017-12-29T07:03:45.219Z,-0.20
2017-12-29T07:06:12.188Z,-0.20
2017-12-29T07:08:39.153Z,-0.20
2017-12-29T07:11:06.124Z,-0.30
2017-12-29T07:13:33.860Z,-0.30
2017-12-29T07:16:00.848Z,-0.30
2017-12-29T07:18:27.810Z,-0.30
2017-12-29T07:20:54.769Z,-0.30
2017-12-29T07:23:21.744Z,-0.30
2017-12-29T07:25:48.712Z,-0.30
2017-12-29T07:28:16.445Z,-0.30
2017-12-29T07:30:43.408Z,-0.30
2017-12-29T07:33:10.380Z,-0.20
2017-12-29T07:35:37.351Z,-0.20
2017-12-29T07:38:04.324Z,-0.20
2017-12-29T07:40:31.292Z,-0.10
2017-12-29T07:42:59.041Z,-0.10
2017-12-29T07:45:26.009Z,-0.10
2017-12-29T07:47:53.752Z,0.10
2017-12-29T07:50:20.710Z,0.10
2017-12-29T07:52:48.432Z,0.00
2017-12-29T07:55:15.404Z,0.00
2017-12-29T07:57:42.368Z,0.10
2017-12-29T08:00:09.324Z,0.10
2017-12-29T08:02:37.076Z,0.20
2017-12-29T08:05:04.807Z,0.20
2017-12-29T08:07:31.768Z,0.20
2017-12-29T08:09:58.735Z,0.30
2017-12-29T08:12:26.464Z,0.40
2017-12-29T08:14:53.431Z,0.40
2017-12-29T08:17:21.952Z,0.60
2017-12-29T08:19:48.916Z,0.60
2017-12-29T08:22:15.887Z,0.60
2017-12-29T08:24:42.855Z,0.50
2017-12-29T08:27:10.576Z,0.60
2017-12-29T08:29:37.536Z,0.60
2017-12-29T08:32:04.504Z,0.50
2017-12-29T08:34:32.240Z,0.40
2017-12-29T08:36:59.216Z,0.40
2017-12-29T08:39:26.955Z,0.40
2017-12-29T08:41:53.972Z,0.40
2017-12-29T08:44:20.952Z,0.70
2017-12-29T08:46:48.703Z,2.00
2017-12-29T08:49:15.676Z,2.00
2017-12-29T08:51:43.429Z,3.10
2017-12-29T08:54:11.201Z,3.30
2017-12-29T08:56:38.951Z,2.90
2017-12-29T08:59:05.994Z,2.80
2017-12-29T09:01:32.916Z,2.60
2017-12-29T09:04:00.336Z,2.00
2017-12-29T09:06:28.519Z,1.70
2017-12-29T09:08:55.916Z,1.70
2017-12-29T09:11:23.329Z,1.70
2017-12-29T09:13:50.741Z,2.20
2017-12-29T09:16:19.673Z,3.20
2017-12-29T09:18:47.073Z,3.20
2017-12-29T09:21:14.480Z,2.60
2017-12-29T09:23:42.653Z,1.90
2017-12-29T09:26:10.834Z,1.70
2017-12-29T09:28:38.236Z,1.70
2017-12-29T09:31:05.667Z,1.70
2017-12-29T09:33:33.060Z,1.60
2017-12-29T09:36:01.245Z,1.40
2017-12-29T09:38:28.652Z,1.40
2017-12-29T09:40:56.056Z,1.60
2017-12-29T09:43:23.469Z,1.80
2017-12-29T09:45:50.873Z,1.80
2017-12-29T09:48:19.048Z,1.70
2017-12-29T09:50:47.216Z,2.00
2017-12-29T09:53:14.638Z,1.90
2017-12-29T09:55:42.053Z,2.20
2017-12-29T09:58:10.228Z,2.00
2017-12-29T10:00:38.401Z,1.80
2017-12-29T10:03:06.576Z,1.80
2017-12-29T10:05:33.989Z,1.80
2017-12-29T10:08:01.423Z,1.70
2017-12-29T10:10:28.828Z,1.70
2017-12-29T10:12:56.996Z,1.50
2017-12-29T10:15:24.410Z,1.50
2017-12-29T10:17:51.822Z,1.40
2017-12-29T10:20:20.005Z,1.70
2017-12-29T10:22:48.185Z,1.70
2017-12-29T10:25:15.584Z,1.90
2017-12-29T10:27:43.005Z,1.90
2017-12-29T10:30:10.409Z,2.00
2017-12-29T10:32:37.864Z,1.90
2017-12-29T10:35:05.280Z,1.80
2017-12-29T10:37:32.693Z,1.70
2017-12-29T10:40:00.105Z,1.60
2017-12-29T10:42:27.502Z,1.60
2017-12-29T10:44:54.913Z,1.40
2017-12-29T10:47:22.325Z,1.30
2017-12-29T10:49:50.488Z,1.30
2017-12-29T10:52:18.674Z,1.20
2017-12-29T10:54:46.858Z,1.20
2017-12-29T10:57:15.029Z,1.20
2017-12-29T10:59:43.215Z,1.20
2017-12-29T11:02:10.667Z,1.20
2017-12-29T11:04:38.017Z,1.40
2017-12-29T11:07:05.427Z,1.50
2017-12-29T11:09:32.857Z,1.50
2017-12-29T11:12:00.280Z,1.50
2017-12-29T11:14:27.673Z,1.40
2017-12-29T11:16:55.072Z,1.40
2017-12-29T11:19:24.176Z,1.30
2017-12-29T11:21:52.344Z,1.50
2017-12-29T11:24:20.531Z,1.60
2017-12-29T11:26:48.718Z,1.60
2017-12-29T11:29:16.885Z,1.60
2017-12-29T11:31:45.053Z,1.70
2017-12-29T11:34:13.238Z,1.60
2017-12-29T11:36:40.639Z,1.60
2017-12-29T11:39:08.108Z,1.30
2017-12-29T11:41:35.471Z,1.20
2017-12-29T11:44:02.880Z,1.20
2017-12-29T11:46:30.697Z,1.20
2017-12-29T11:48:58.109Z,1.10
2017-12-29T11:51:25.521Z,1.00
2017-12-29T11:53:53.695Z,0.90
2017-12-29T11:56:21.873Z,1.00
2017-12-29T11:58:50.050Z,1.10
2017-12-29T12:01:18.233Z,1.30
2017-12-29T12:03:46.400Z,1.70
2017-12-29T12:06:14.574Z,2.00
2017-12-29T12:08:42.753Z,2.20
2017-12-29T12:11:10.169Z,2.10
2017-12-29T12:13:37.568Z,1.90
2017-12-29T12:16:04.976Z,1.70
2017-12-29T12:18:32.381Z,1.60
2017-12-29T12:20:59.802Z,1.40
2017-12-29T12:23:27.201Z,1.10
2017-12-29T12:25:54.612Z,1.10
2017-12-29T12:28:22.041Z,1.00
2017-12-29T12:30:49.432Z,1.00
2017-12-29T12:33:17.604Z,1.00
2017-12-29T12:35:45.013Z,1.00
2017-12-29T12:38:12.424Z,1.00
2017-12-29T12:40:40.619Z,1.10
2017-12-29T12:43:08.037Z,1.10
2017-12-29T12:45:35.447Z,1.20
2017-12-29T12:48:02.853Z,1.20
2017-12-29T12:50:30.264Z,1.30
2017-12-29T12:52:57.671Z,1.10
2017-12-29T12:55:25.078Z,0.90
2017-12-29T12:57:52.493Z,0.90
2017-12-29T13:00:20.664Z,0.80
2017-12-29T13:02:48.845Z,0.90
2017-12-29T13:05:17.025Z,0.90
2017-12-29T13:07:44.438Z,0.90
2017-12-29T13:10:11.858Z,0.80
2017-12-29T13:12:39.268Z,0.80
2017-12-29T13:15:06.243Z,0.70
2017-12-29T13:17:34.389Z,0.80
2017-12-29T13:20:01.356Z,0.80
2017-12-29T13:22:28.780Z,0.90
2017-12-29T13:24:55.728Z,0.80
2017-12-29T13:27:22.693Z,0.80
2017-12-29T13:29:50.436Z,0.80
2017-12-29T13:32:17.387Z,0.80
2017-12-29T13:34:44.351Z,0.80
2017-12-29T13:37:12.083Z,0.50
2017-12-29T13:39:39.557Z,0.50
2017-12-29T13:42:06.496Z,0.50
2017-12-29T13:44:33.468Z,0.50
2017-12-29T13:47:00.592Z,0.50
2017-12-29T13:49:28.010Z,0.50
2017-12-29T13:51:55.724Z,0.50
2017-12-29T13:54:22.728Z,0.60
2017-12-29T13:56:49.687Z,0.60
2017-12-29T13:59:16.649Z,0.70
2017-12-29T14:01:43.632Z,0.60
2017-12-29T14:04:10.585Z,0.60
2017-12-29T14:06:37.560Z,0.70
2017-12-29T14:09:04.593Z,0.70
2017-12-29T14:11:31.547Z,0.70
2017-12-29T14:13:58.518Z,0.70
2017-12-29T14:16:25.980Z,0.60
2017-12-29T14:18:52.936Z,0.70
2017-12-29T14:21:20.680Z,0.60
2017-12-29T14:23:47.648Z,0.60
2017-12-29T14:26:15.384Z,0.70
2017-12-29T14:28:42.350Z,0.70
2017-12-29T14:31:09.307Z,0.70
2017-12-29T14:33:37.088Z,0.70
2017-12-29T14:36:04.047Z,0.70
2017-12-29T14:38:31.013Z,0.70
2017-12-29T14:40:57.982Z,0.60
2017-12-29T14:43:24.948Z,0.50
2017-12-29T14:45:52.676Z,0.60
2017-12-29T14:48:19.657Z,0.50
2017-12-29T14:50:47.384Z,0.50
2017-12-29T14:53:14.355Z,0.50
2017-12-29T14:55:42.091Z,0.60
2017-12-29T14:58:09.048Z,0.60
2017-12-29T15:00:36.007Z,0.70
2017-12-29T15:03:02.972Z,0.70
2017-12-29T15:05:29.939Z,0.70
2017-12-29T15:07:56.905Z,0.50
2017-12-29T15:10:23.880Z,0.20
2017-12-29T15:12:51.643Z,0.10
2017-12-29T15:15:18.625Z,0.10
2017-12-29T15:17:46.343Z,0.20
2017-12-29T15:20:13.623Z,0.20
2017-12-29T15:22:41.357Z,0.20
2017-12-29T15:25:08.324Z,0.20
2017-12-29T15:27:36.049Z,0.20
2017-12-29T15:30:03.016Z,0.20
2017-12-29T15:32:29.979Z,0.20
2017-12-29T15:34:57.708Z,0.30
2017-12-29T15:37:24.668Z,0.20
2017-12-29T15:39:51.632Z,0.30
2017-12-29T15:42:18.588Z,0.20
2017-12-29T15:44:46.331Z,0.10
2017-12-29T15:47:13.291Z,0.10
2017-12-29T15:49:41.015Z,0.00
2017-12-29T15:52:07.985Z,0.00
2017-12-29T15:54:34.955Z,0.00
2017-12-29T15:57:02.684Z,-0.10
2017-12-29T15:59:29.644Z,-0.10
2017-12-29T16:01:57.388Z,-0.10
2017-12-29T16:04:24.358Z,-0.10
2017-12-29T16:06:51.332Z,-0.20
2017-12-29T16:09:18.296Z,-0.20
2017-12-29T16:11:45.268Z,-0.20
2017-12-29T16:14:12.232Z,-0.10
2017-12-29T16:16:39.207Z,-0.20
2017-12-29T16:19:06.168Z,-0.20
2017-12-29T16:21:33.151Z,-0.30
2017-12-29T16:24:00.112Z,-0.30
2017-12-29T16:26:27.088Z,-0.30
2017-12-29T16:28:54.821Z,-0.30
2017-12-29T16:31:21.779Z,-0.30
2017-12-29T16:33:49.515Z,-0.20
2017-12-29T16:36:16.488Z,-0.30
2017-12-29T16:38:44.228Z,-0.30
2017-12-29T16:41:11.200Z,-0.30
2017-12-29T16:43:38.972Z,-0.30
2017-12-29T16:46:05.908Z,-0.40
2017-12-29T16:48:33.656Z,-0.40
2017-12-29T16:51:00.628Z,-0.40
2017-12-29T16:53:28.378Z,-0.30
2017-12-29T16:55:55.348Z,-0.40
2017-12-29T16:58:22.319Z,-0.30
2017-12-29T17:00:49.556Z,-0.40
2017-12-29T17:03:16.528Z,-0.40
2017-12-29T17:05:43.516Z,-0.40
2017-12-29T17:08:11.253Z,-0.30
2017-12-29T17:10:38.228Z,-0.30
2017-12-29T17:13:05.959Z,-0.30
2017-12-29T17:15:32.940Z,-0.30
2017-12-29T17:18:00.671Z,-0.40
2017-12-29T17:20:27.644Z,-0.40
2017-12-29T17:22:55.382Z,-0.40
2017-12-29T17:25:22.382Z,-0.50
2017-12-29T17:27:50.086Z,-0.50
2017-12-29T17:30:17.064Z,-0.50
2017-12-29T17:32:44.805Z,-0.50
2017-12-29T17:35:11.777Z,-0.50
2017-12-29T17:37:39.503Z,-0.60
2017-12-29T17:40:06.473Z,-0.60
2017-12-29T17:42:34.217Z,-0.60
2017-12-29T17:45:01.180Z,-0.60
2017-12-29T17:47:28.152Z,-0.50
2017-12-29T17:49:55.112Z,-0.60
2017-12-29T17:52:22.083Z,-0.60
2017-12-29T17:54:49.058Z,-0.60
2017-12-29T17:57:16.025Z,-0.50
2017-12-29T17:59:43.756Z,-0.40
2017-12-29T18:02:10.736Z,-0.50
2017-12-29T18:04:38.467Z,-0.30
2017-12-29T18:07:05.444Z,-0.40
2017-12-29T18:09:33.189Z,-0.50
2017-12-29T18:12:00.156Z,-0.50
2017-12-29T18:14:27.125Z,-0.50
2017-12-29T18:16:54.092Z,-0.40
2017-12-29T18:19:21.065Z,-0.50
2017-12-29T18:21:48.039Z,-0.50
2017-12-29T18:24:15.772Z,-0.50
2017-12-29T18:26:42.735Z,-0.50
2017-12-29T18:29:10.476Z,-0.50
2017-12-29T18:31:37.444Z,-0.50
2017-12-29T18:34:05.190Z,-0.40
